Time;durP1;ratioP1;P1;durP2;ratioP2;P2;SDS_P1;SDS_P2;PMS_P1;PMS_P2;Temp;Humidity;BMP_temperature;BMP_pressure;BME280_temperature;BME280_humidity;BME280_pressure;Samples;Min_cycle;Max_cycle;Signal;HPM_P1;HPM_P2
2023/09/26 00:01:46;;;;;;;;;17.00;10.00;;;;;18.81;63.91;101451.06;5060628;28;45462;-70
2023/09/26 00:04:11;;;;;;;;;16.25;11.00;;;;;18.79;63.77;101444.97;5058337;28;51860;-70
2023/09/26 00:06:37;;;;;;;;;9.25;6.75;;;;;18.75;63.91;101444.28;5059029;28;48490;-70
2023/09/26 00:09:05;;;;;;;;;10.50;9.25;;;;;18.75;63.64;101444.28;5062044;28;45220;-70
2023/09/26 00:11:30;;;;;;;;;9.50;8.00;;;;;18.75;63.31;101441.63;5049711;28;46162;-69
2023/09/26 00:13:55;;;;;;;;;10.50;8.25;;;;;18.73;63.21;101439.97;5061618;28;45182;-70
2023/09/26 00:16:21;;;;;;;;;9.75;7.75;;;;;18.71;63.48;101434.72;5056932;28;45316;-70
2023/09/26 00:18:46;;;;;;;;;10.75;7.00;;;;;18.70;63.33;101433.03;5052085;28;65686;-69
2023/09/26 00:21:12;;;;;;;;;8.25;7.25;;;;;18.72;63.00;101439.13;5051934;28;66057;-70
2023/09/26 00:23:37;;;;;;;;;7.50;7.50;;;;;18.72;63.13;101438.25;5046977;28;45435;-70
2023/09/26 00:26:04;;;;;;;;;8.00;8.00;;;;;18.74;63.17;101433.75;5057975;28;65842;-70
2023/09/26 00:28:30;;;;;;;;;8.25;8.00;;;;;18.72;63.16;101427.66;5060412;28;45427;-70
2023/09/26 00:31:04;;;;;;;;;9.75;6.25;;;;;18.75;62.96;101423.06;5054744;28;45508;-69
2023/09/26 00:33:32;;;;;;;;;6.00;3.25;;;;;18.79;63.15;101434.38;5055103;28;45810;-70
2023/09/26 00:36:06;;;;;;;;;6.50;5.25;;;;;18.68;62.44;101415.47;5036212;28;45295;-70
2023/09/26 00:38:33;;;;;;;;;8.00;6.00;;;;;18.84;62.74;101439.44;5062269;27;45549;-70
2023/09/26 00:40:59;;;;;;;;;10.00;9.00;;;;;18.85;62.61;101431.44;5047147;28;45488;-70
2023/09/26 00:43:25;;;;;;;;;9.75;9.00;;;;;18.82;62.19;101428.91;5041790;28;45441;-70
2023/09/26 00:45:53;;;;;;;;;9.00;7.25;;;;;18.87;62.64;101431.34;5049266;28;45423;-70
2023/09/26 00:48:23;;;;;;;;;7.50;7.50;;;;;18.89;62.34;101432.13;5044640;28;45553;-70
2023/09/26 00:50:50;;;;;;;;;8.75;6.25;;;;;18.88;62.19;101428.63;5057398;28;46685;-70
2023/09/26 00:53:16;;;;;;;;;8.00;7.50;;;;;18.87;62.21;101434.00;5057940;28;45769;-70
2023/09/26 00:55:46;;;;;;;;;11.25;8.00;;;;;18.85;62.05;101436.72;5058426;28;59205;-70
2023/09/26 00:58:16;;;;;;;;;10.25;7.75;;;;;18.84;61.95;101436.81;5057253;28;45288;-70
2023/09/26 01:00:42;;;;;;;;;8.75;7.25;;;;;18.81;62.29;101434.28;5043248;28;46545;-70
2023/09/26 01:03:08;;;;;;;;;7.25;5.75;;;;;18.79;61.94;101439.66;5040234;28;45446;-70
2023/09/26 01:05:35;;;;;;;;;7.75;5.75;;;;;18.78;61.75;101440.59;5053565;28;67463;-70
2023/09/26 01:08:01;;;;;;;;;9.25;8.00;;;;;18.73;61.84;101430.25;5053956;28;45495;-70
2023/09/26 01:10:26;;;;;;;;;8.75;5.75;;;;;18.73;61.60;101421.41;5054234;28;55906;-70
2023/09/26 01:12:51;;;;;;;;;9.25;7.00;;;;;18.70;61.62;101417.13;5058466;28;67584;-70
2023/09/26 01:15:37;;;;;;;;;6.25;6.25;;;;;18.72;61.59;101415.25;5058136;28;61058;-70
2023/09/26 01:18:10;;;;;;;;;11.50;7.75;;;;;18.75;61.63;101411.56;5045816;28;45301;-69
2023/09/26 01:20:43;;;;;;;;;5.00;5.00;;;;;18.75;61.57;101408.91;5059577;28;46277;-69
2023/09/26 01:23:11;;;;;;;;;7.25;5.00;;;;;18.74;61.26;101409.88;5051537;28;45391;-70
2023/09/26 01:25:36;;;;;;;;;6.00;6.00;;;;;18.78;61.41;101419.38;5045933;28;45392;-70
2023/09/26 01:28:07;;;;;;;;;5.00;5.00;;;;;18.78;61.00;101422.88;5050818;28;45257;-70
2023/09/26 01:30:33;;;;;;;;;7.00;6.75;;;;;18.74;60.94;101416.03;5057062;28;46728;-70
2023/09/26 01:32:59;;;;;;;;;6.50;5.75;;;;;18.79;60.66;101418.47;5059140;28;45848;-70
2023/09/26 01:35:25;;;;;;;;;6.50;5.00;;;;;18.79;60.85;101414.00;5049456;28;45344;-70
2023/09/26 01:37:50;;;;;;;;;5.75;5.00;;;;;18.82;60.53;101412.16;5048677;28;66080;-70
2023/09/26 01:40:16;;;;;;;;;5.25;5.25;;;;;18.82;60.43;101398.91;5042006;28;46879;-70
2023/09/26 01:42:42;;;;;;;;;6.00;6.00;;;;;18.85;60.21;101402.25;5060259;28;45488;-70
2023/09/26 01:45:08;;;;;;;;;7.25;5.00;;;;;18.87;60.17;101402.19;5048306;28;45271;-70
2023/09/26 01:47:45;;;;;;;;;7.25;4.75;;;;;18.88;60.34;101401.25;5058052;28;45463;-70
2023/09/26 01:50:11;;;;;;;;;8.75;5.00;;;;;18.89;60.12;101389.69;5049510;28;46419;-70
2023/09/26 01:52:37;;;;;;;;;5.50;5.50;;;;;18.88;60.00;101380.03;5054655;28;45557;-70
2023/09/26 01:55:05;;;;;;;;;7.75;5.75;;;;;18.85;59.92;101380.19;5055192;28;45378;-70
2023/09/26 01:57:31;;;;;;;;;5.50;5.00;;;;;18.85;60.20;101393.44;5047947;28;45374;-70
2023/09/26 02:00:00;;;;;;;;;5.00;5.00;;;;;18.82;59.66;101389.13;5058228;28;45306;-70
2023/09/26 02:02:25;;;;;;;;;6.00;4.75;;;;;18.78;59.88;101390.22;5057576;28;45509;-70
2023/09/26 02:04:51;;;;;;;;;5.25;3.00;;;;;18.81;59.61;101402.47;5048541;28;68053;-70
2023/09/26 02:07:16;;;;;;;;;2.00;1.00;;;;;18.78;59.68;101403.47;5063184;28;45279;-70
2023/09/26 02:09:41;;;;;;;;;4.00;4.00;;;;;18.74;59.81;101397.47;5047961;28;69706;-70
2023/09/26 02:12:07;;;;;;;;;6.00;4.50;;;;;18.74;59.25;101402.78;5054529;28;45573;-70
2023/09/26 02:14:33;;;;;;;;;4.25;4.25;;;;;18.71;59.75;101400.25;5059904;28;45545;-69
2023/09/26 02:16:58;;;;;;;;;5.00;3.00;;;;;18.70;59.47;101403.88;5049183;28;71767;-70
2023/09/26 02:19:23;;;;;;;;;6.75;3.50;;;;;18.68;59.32;101400.44;5052677;28;67858;-69
2023/09/26 02:21:49;;;;;;;;;5.25;3.25;;;;;18.66;59.50;101397.00;5050135;28;45347;-70
2023/09/26 02:24:14;;;;;;;;;5.25;4.00;;;;;18.63;59.28;101388.31;5047423;28;45325;-70
2023/09/26 02:26:40;;;;;;;;;4.00;3.25;;;;;18.64;59.24;101395.34;5059018;28;47007;-68
2023/09/26 02:29:05;;;;;;;;;6.00;3.75;;;;;18.63;58.85;101388.31;5059176;28;45420;-69
2023/09/26 02:31:30;;;;;;;;;6.00;5.75;;;;;18.59;59.17;101388.50;5074312;28;45390;-69
2023/09/26 02:33:56;;;;;;;;;5.00;3.75;;;;;18.57;59.20;101390.38;5058554;28;63543;-70
2023/09/26 02:36:21;;;;;;;;;7.25;5.00;;;;;18.59;58.91;101388.50;5041716;28;46093;-70
2023/09/26 02:38:47;;;;;;;;;6.50;4.75;;;;;18.58;58.93;101386.78;5057938;28;46749;-70
2023/09/26 02:41:12;;;;;;;;;6.25;4.25;;;;;18.60;58.85;101384.91;5059178;28;45264;-70
2023/09/26 02:43:38;;;;;;;;;4.50;4.50;;;;;18.62;58.74;101381.31;5056590;28;45549;-68
2023/09/26 02:46:03;;;;;;;;;4.50;4.50;;;;;18.60;59.07;101376.94;5059725;28;45283;-69
2023/09/26 02:48:28;;;;;;;;;6.00;6.00;;;;;18.64;58.94;101379.44;5051745;28;75051;-70
2023/09/26 02:51:03;;;;;;;;;8.25;5.00;;;;;18.65;58.68;101375.88;5051674;28;54618;-69
2023/09/26 02:53:28;;;;;;;;;7.25;6.25;;;;;18.64;58.68;101367.03;5056956;28;45275;-69
2023/09/26 02:55:53;;;;;;;;;6.75;5.00;;;;;18.65;58.70;101359.97;5058040;28;45482;-69
2023/09/26 02:58:19;;;;;;;;;7.00;5.00;;;;;18.65;58.81;101354.66;5055613;28;66354;-69
2023/09/26 03:00:44;;;;;;;;;6.75;6.00;;;;;18.63;58.42;101353.88;5055870;28;73609;-69
2023/09/26 03:03:09;;;;;;;;;6.75;4.50;;;;;18.60;58.69;101349.59;5050351;28;45300;-69
2023/09/26 03:05:35;;;;;;;;;4.50;4.00;;;;;18.58;58.68;101354.13;5055787;28;58400;-69
2023/09/26 03:08:00;;;;;;;;;6.25;4.00;;;;;18.58;58.45;101352.31;5038087;28;46718;-69
2023/09/26 03:10:26;;;;;;;;;5.00;5.00;;;;;18.55;58.88;101356.91;5050353;28;45424;-69
2023/09/26 03:12:51;;;;;;;;;4.50;4.50;;;;;18.53;58.24;101359.63;5054998;28;63789;-69
2023/09/26 03:15:17;;;;;;;;;4.75;4.00;;;;;18.48;58.62;101364.31;5058130;28;45414;-68
2023/09/26 03:17:43;;;;;;;;;5.50;4.00;;;;;18.48;58.49;101361.66;5043326;28;46210;-68
2023/09/26 03:20:09;;;;;;;;;5.00;4.00;;;;;18.42;58.53;101351.38;5057140;28;45462;-69
2023/09/26 03:22:34;;;;;;;;;4.75;4.00;;;;;18.40;58.48;101346.16;5053797;28;45486;-69
2023/09/26 03:24:59;;;;;;;;;8.25;4.00;;;;;18.40;58.57;101351.44;5056136;28;47885;-69
2023/09/26 03:27:25;;;;;;;;;8.50;2.25;;;;;18.39;58.59;101351.53;5045772;28;45365;-69
2023/09/26 03:29:50;;;;;;;;;5.00;5.00;;;;;18.37;58.40;101350.75;5041220;28;60065;-70
2023/09/26 03:32:16;;;;;;;;;7.00;4.50;;;;;18.36;58.40;101352.56;5047880;28;45725;-69
2023/09/26 03:34:41;;;;;;;;;8.25;4.50;;;;;18.34;58.59;101349.13;5057756;28;53558;-69
2023/09/26 03:37:07;;;;;;;;;6.00;4.25;;;;;18.33;58.69;101351.84;5053922;28;71643;-69
2023/09/26 03:39:32;;;;;;;;;4.25;3.75;;;;;18.31;58.39;101346.63;5042875;28;45348;-69
2023/09/26 03:41:57;;;;;;;;;5.00;3.50;;;;;18.31;57.90;101351.91;5027675;28;45301;-69
2023/09/26 03:44:23;;;;;;;;;6.75;4.50;;;;;18.31;58.52;101357.22;5050637;28;65719;-69
2023/09/26 03:46:48;;;;;;;;;4.00;4.00;;;;;18.28;58.36;101357.38;5046535;28;52729;-69
2023/09/26 03:49:13;;;;;;;;;6.50;5.00;;;;;18.29;58.69;101355.56;5051334;28;45311;-69
2023/09/26 03:51:39;;;;;;;;;6.00;4.50;;;;;18.28;58.35;101353.88;5052084;28;55817;-69
2023/09/26 03:54:04;;;;;;;;;6.25;4.50;;;;;18.21;58.63;101343.56;5048459;28;71874;-69
2023/09/26 03:56:29;;;;;;;;;8.00;5.00;;;;;18.23;58.55;101351.44;5056132;28;46510;-69
2023/09/26 03:58:56;;;;;;;;;4.25;4.00;;;;;18.20;58.59;101347.16;5056842;28;73012;-69
2023/09/26 04:01:22;;;;;;;;;3.75;3.75;;;;;18.17;58.38;101341.16;5046202;28;45434;-69
2023/09/26 04:03:48;;;;;;;;;5.75;5.75;;;;;18.17;58.49;101338.50;5057127;28;45415;-69
2023/09/26 04:06:14;;;;;;;;;6.75;5.50;;;;;18.16;58.88;101336.78;5043885;28;45596;-70
2023/09/26 04:08:40;;;;;;;;;8.25;5.25;;;;;18.15;58.69;101335.94;5040825;28;45895;-70
2023/09/26 04:11:05;;;;;;;;;9.50;6.75;;;;;18.10;59.02;101324.69;5050718;28;66029;-70
2023/09/26 04:13:30;;;;;;;;;6.00;5.75;;;;;18.09;58.83;101317.66;5054492;28;61505;-70
2023/09/26 04:15:56;;;;;;;;;6.25;4.75;;;;;18.06;58.72;101319.59;5056042;28;71576;-69
2023/09/26 04:18:24;;;;;;;;;4.75;4.75;;;;;18.04;58.88;101322.31;5046935;28;45307;-70
2023/09/26 04:20:50;;;;;;;;;3.75;3.50;;;;;18.02;58.60;101314.47;5059312;28;45307;-70
2023/09/26 04:23:16;;;;;;;;;6.75;6.75;;;;;18.01;58.92;101320.69;5053392;28;45399;-70
2023/09/26 04:25:41;;;;;;;;;5.00;4.25;;;;;18.00;58.80;101318.13;5048082;28;46198;-70
2023/09/26 04:28:07;;;;;;;;;6.25;6.25;;;;;18.00;58.81;101320.78;5049163;28;45615;-69
2023/09/26 04:30:37;;;;;;;;;6.00;4.75;;;;;17.97;58.85;101311.19;5047429;28;45424;-70
2023/09/26 04:33:03;;;;;;;;;7.25;7.25;;;;;17.97;59.16;101318.25;5054543;28;45399;-70
2023/09/26 04:35:28;;;;;;;;;9.25;6.00;;;;;17.97;58.95;101315.63;5060108;28;46025;-70
2023/09/26 04:37:54;;;;;;;;;8.25;6.75;;;;;17.91;58.90;101315.94;5049949;28;45233;-70
2023/09/26 04:40:19;;;;;;;;;8.00;6.50;;;;;17.91;59.20;101323.88;5046736;28;46084;-70
2023/09/26 04:42:48;;;;;;;;;7.25;6.75;;;;;17.90;59.03;101325.66;5059673;28;45666;-70
2023/09/26 04:45:13;;;;;;;;;9.50;7.25;;;;;17.90;59.04;101322.16;5049276;28;45550;-70
2023/09/26 04:47:39;;;;;;;;;6.00;5.25;;;;;17.86;59.20;101315.28;5061298;28;45399;-70
2023/09/26 04:50:06;;;;;;;;;6.50;6.50;;;;;17.89;59.23;101317.78;5060384;28;45397;-70
2023/09/26 04:52:31;;;;;;;;;10.50;7.50;;;;;17.86;59.08;101313.50;5057877;28;45313;-70
2023/09/26 04:54:57;;;;;;;;;9.75;8.75;;;;;17.86;59.15;101312.63;5058776;28;45427;-69
2023/09/26 04:57:22;;;;;;;;;8.50;7.00;;;;;17.82;59.27;101306.59;5061103;28;55129;-69
2023/09/26 04:59:47;;;;;;;;;7.75;7.75;;;;;17.82;59.17;101311.91;5057109;28;68785;-70
2023/09/26 05:02:13;;;;;;;;;6.75;6.00;;;;;17.81;59.34;101311.06;5056087;28;45589;-69
2023/09/26 05:04:40;;;;;;;;;10.00;9.00;;;;;17.79;59.30;101304.94;5055131;28;47382;-70
2023/09/26 05:07:07;;;;;;;;;9.00;8.00;;;;;17.80;59.57;101301.38;5049878;28;46137;-70
2023/09/26 05:09:33;;;;;;;;;13.75;8.25;;;;;17.80;59.60;101301.38;5055999;28;45316;-70
2023/09/26 05:11:58;;;;;;;;;10.00;8.00;;;;;17.76;59.44;101297.19;5051041;28;45387;-70
2023/09/26 05:14:23;;;;;;;;;8.75;7.50;;;;;17.77;59.57;101301.53;5056279;28;66932;-69
2023/09/26 05:16:49;;;;;;;;;11.00;10.50;;;;;17.76;59.42;101301.59;5060327;28;45390;-70
2023/09/26 05:19:15;;;;;;;;;10.50;9.00;;;;;17.75;59.52;101300.75;5061385;28;45456;-70
2023/09/26 05:21:40;;;;;;;;;10.75;7.00;;;;;17.74;59.54;101299.03;5057846;28;45411;-70
2023/09/26 05:24:07;;;;;;;;;7.50;6.50;;;;;17.72;59.66;101292.09;5058395;28;62461;-70
2023/09/26 05:26:33;;;;;;;;;9.00;8.50;;;;;17.73;59.61;101296.47;5049514;28;45237;-70
2023/09/26 05:28:58;;;;;;;;;8.75;8.75;;;;;17.71;59.33;101298.34;5060595;28;45262;-70
2023/09/26 05:31:28;;;;;;;;;10.25;8.50;;;;;17.66;59.45;101298.53;5061585;28;65333;-70
2023/09/26 05:33:56;;;;;;;;;9.25;9.00;;;;;17.68;59.86;101306.41;5053964;28;45735;-69
2023/09/26 05:36:21;;;;;;;;;11.25;5.75;;;;;17.65;59.87;101299.47;5054316;28;45462;-70
2023/09/26 05:38:47;;;;;;;;;10.25;9.00;;;;;17.67;59.98;101299.38;5047148;28;46000;-70
2023/09/26 05:41:12;;;;;;;;;11.50;9.50;;;;;17.65;59.62;101296.81;5057548;28;68567;-70
2023/09/26 05:43:37;;;;;;;;;13.00;10.00;;;;;17.67;59.79;101294.97;5056608;28;74611;-70
2023/09/26 05:46:04;;;;;;;;;15.00;11.00;;;;;17.66;59.92;101287.94;5059921;27;45293;-69
2023/09/26 05:48:29;;;;;;;;;8.25;7.00;;;;;17.67;59.69;101289.69;5042310;28;45450;-70
2023/09/26 05:50:59;;;;;;;;;12.50;9.00;;;;;17.66;60.01;101285.31;5056861;28;51456;-70
2023/09/26 05:53:25;;;;;;;;;11.00;8.75;;;;;17.65;59.62;101300.34;5059713;28;45492;-70
2023/09/26 05:55:53;;;;;;;;;10.25;7.75;;;;;17.67;59.86;101302.91;5057009;28;45443;-70
2023/09/26 05:58:21;;;;;;;;;12.00;9.50;;;;;17.67;59.89;101302.03;5052405;28;45390;-70
2023/09/26 06:00:47;;;;;;;;;69.25;54.00;;;;;17.67;60.03;101302.03;5058592;28;45404;-70
2023/09/26 06:03:14;;;;;;;;;14.25;10.50;;;;;17.69;59.81;101294.88;5052987;28;45883;-70
2023/09/26 06:05:40;;;;;;;;;13.50;9.75;;;;;17.69;59.72;101287.81;5043266;28;45351;-70
2023/09/26 06:08:05;;;;;;;;;10.50;8.25;;;;;17.69;59.87;101287.81;5048504;28;45416;-69
2023/09/26 06:10:30;;;;;;;;;12.50;8.50;;;;;17.72;59.88;101284.16;5054711;28;45509;-70
2023/09/26 06:12:56;;;;;;;;;11.00;8.25;;;;;17.70;59.75;101283.38;5057363;28;49930;-70
2023/09/26 06:15:22;;;;;;;;;10.50;8.75;;;;;17.74;59.72;101283.16;5057637;28;52545;-70
2023/09/26 06:17:47;;;;;;;;;10.25;7.25;;;;;17.76;59.98;101285.72;5046081;28;45280;-69
2023/09/26 06:20:13;;;;;;;;;11.75;7.75;;;;;17.79;59.71;101288.22;5041510;28;62681;-69
2023/09/26 06:22:38;;;;;;;;;10.75;9.00;;;;;17.79;59.77;101286.41;5055009;28;45466;-69
2023/09/26 06:25:04;;;;;;;;;9.00;7.25;;;;;17.84;59.77;101288.84;5050380;28;45296;-68
2023/09/26 06:27:34;;;;;;;;;13.00;8.25;;;;;17.86;59.75;101284.38;5046770;28;45302;-70
2023/09/26 06:29:59;;;;;;;;;11.25;8.00;;;;;17.89;59.69;101302.75;5057165;28;45497;-68
2023/09/26 06:32:25;;;;;;;;;8.75;8.00;;;;;17.88;59.46;101295.72;5054399;28;74137;-70
2023/09/26 06:34:50;;;;;;;;;9.00;9.00;;;;;17.91;59.42;101292.94;5049599;28;45423;-68
2023/09/26 06:37:16;;;;;;;;;12.75;9.00;;;;;17.93;59.16;101285.78;5052470;28;45465;-68
2023/09/26 06:39:41;;;;;;;;;11.50;8.75;;;;;17.93;59.34;101285.78;5052875;28;45477;-69
2023/09/26 06:42:07;;;;;;;;;10.50;9.25;;;;;17.95;59.22;101293.66;5051221;28;45561;-69
2023/09/26 06:44:32;;;;;;;;;9.75;8.25;;;;;17.95;59.41;101293.66;5056805;28;54094;-69
2023/09/26 06:46:57;;;;;;;;;10.50;8.75;;;;;17.98;59.13;101297.00;5042964;28;58330;-69
2023/09/26 06:49:23;;;;;;;;;8.00;7.00;;;;;18.02;59.01;101303.00;5052198;28;58483;-69
2023/09/26 06:51:48;;;;;;;;;12.25;10.00;;;;;18.03;59.09;101300.28;5054746;28;46428;-69
2023/09/26 06:54:13;;;;;;;;;13.50;10.00;;;;;18.10;59.14;101305.31;5059542;28;45208;-69
2023/09/26 06:56:39;;;;;;;;;51.00;38.00;;;;;18.11;59.28;101294.59;5057625;28;57685;-69
2023/09/26 06:59:04;;;;;;;;;23.25;20.50;;;;;18.20;58.98;101302.13;5057899;28;64044;-68
2023/09/26 07:01:29;;;;;;;;;12.25;10.75;;;;;18.23;58.91;101293.16;5062793;27;46663;-69
2023/09/26 07:03:55;;;;;;;;;12.00;9.75;;;;;18.30;58.64;101296.34;5065779;27;45506;-69
2023/09/26 07:06:20;;;;;;;;;9.75;8.50;;;;;18.36;58.62;101296.91;5057490;28;45313;-69
2023/09/26 07:08:46;;;;;;;;;49.75;36.00;;;;;18.45;58.28;101307.94;5049487;28;45455;-69
2023/09/26 07:11:11;;;;;;;;;40.50;30.75;;;;;18.51;58.24;101299.69;5052954;28;45347;-69
2023/09/26 07:13:36;;;;;;;;;33.25;23.75;;;;;18.57;58.18;101299.38;5057485;28;45236;-69
2023/09/26 07:16:04;;;;;;;;;11.50;10.25;;;;;18.65;58.19;101307.81;5048306;28;45414;-69
2023/09/26 07:18:33;;;;;;;;;11.50;9.00;;;;;18.77;58.02;101301.00;5041497;28;45419;-70
2023/09/26 07:21:05;;;;;;;;;12.50;9.50;;;;;18.84;57.77;101302.44;5039782;28;45356;-70
2023/09/26 07:23:32;;;;;;;;;13.50;8.75;;;;;18.91;57.65;101305.59;5045167;28;45881;-70
2023/09/26 07:26:12;;;;;;;;;11.00;8.00;;;;;18.96;57.09;101309.75;5041197;28;45236;-70
2023/09/26 07:28:39;;;;;;;;;16.00;14.50;;;;;19.01;57.54;101301.53;5051521;28;45501;-70
2023/09/26 07:31:04;;;;;;;;;67.00;50.00;;;;;19.09;57.53;101314.41;5039949;28;45475;-70
2023/09/26 07:33:30;;;;;;;;;25.00;15.00;;;;;19.15;57.30;101329.97;5054472;28;45509;-69
2023/09/26 07:35:56;;;;;;;;;9.75;7.00;;;;;19.19;56.89;101333.31;5046902;28;45327;-70
2023/09/26 07:38:21;;;;;;;;;13.75;8.00;;;;;19.25;56.54;101328.53;5055908;28;45433;-70
2023/09/26 07:40:46;;;;;;;;;8.75;8.50;;;;;19.27;56.40;101320.50;5045605;28;46247;-70
2023/09/26 07:43:13;;;;;;;;;10.00;7.50;;;;;19.25;56.32;101315.28;5057436;28;70466;-70
2023/09/26 07:45:39;;;;;;;;;9.00;7.00;;;;;19.26;56.55;101322.28;5051494;28;45355;-70
2023/09/26 07:48:04;;;;;;;;;10.50;7.75;;;;;19.25;56.16;101322.38;5050007;28;45209;-69
2023/09/26 07:50:30;;;;;;;;;13.50;8.50;;;;;19.28;56.45;101322.19;5045852;28;45341;-70
2023/09/26 07:52:55;;;;;;;;;10.50;8.25;;;;;19.29;56.70;101323.94;5054608;28;51354;-70
2023/09/26 07:55:21;;;;;;;;;11.25;10.25;;;;;19.30;56.38;101317.66;5048346;28;45150;-70
2023/09/26 07:57:46;;;;;;;;;11.50;9.00;;;;;19.30;56.24;101323.84;5049633;28;45552;-71
2023/09/26 08:00:13;;;;;;;;;14.50;9.00;;;;;19.32;56.47;101327.28;5049873;28;62793;-70
2023/09/26 08:02:38;;;;;;;;;13.75;10.50;;;;;19.32;56.42;101329.94;5060446;28;45778;-69
2023/09/26 08:05:04;;;;;;;;;14.75;12.75;;;;;19.33;56.51;101321.00;5051726;28;45539;-69
2023/09/26 08:07:29;;;;;;;;;12.00;10.00;;;;;19.35;56.47;101321.81;5056952;28;45348;-69
2023/09/26 08:10:00;;;;;;;;;11.75;11.75;;;;;19.41;55.91;101328.56;5042557;28;69830;-69
2023/09/26 08:12:25;;;;;;;;;13.00;10.00;;;;;19.45;56.38;101335.41;5058205;28;45903;-69
2023/09/26 08:14:53;;;;;;;;;11.25;8.25;;;;;19.46;56.11;101328.28;5060076;28;45416;-69
2023/09/26 08:17:19;;;;;;;;;12.50;10.25;;;;;19.51;55.85;101329.78;5058925;28;45371;-69
2023/09/26 08:19:44;;;;;;;;;12.00;9.25;;;;;19.56;55.67;101332.16;5045334;28;46548;-69
2023/09/26 08:22:10;;;;;;;;;9.25;7.50;;;;;19.59;55.78;101328.50;5047518;28;45459;-70
2023/09/26 08:24:35;;;;;;;;;11.75;8.75;;;;;19.64;55.65;101332.59;5054885;28;45699;-68
2023/09/26 08:27:01;;;;;;;;;10.00;7.00;;;;;19.66;55.45;101333.38;5048276;28;73052;-69
2023/09/26 08:29:27;;;;;;;;;12.00;8.00;;;;;19.73;55.54;101341.88;5050545;28;56673;-69
2023/09/26 08:31:52;;;;;;;;;10.25;9.00;;;;;19.80;55.14;101340.59;5053818;28;45498;-69
2023/09/26 08:34:18;;;;;;;;;10.00;8.50;;;;;19.87;55.19;101344.63;5060837;28;45272;-69
2023/09/26 08:36:43;;;;;;;;;10.00;9.50;;;;;19.94;55.46;101333.63;5060121;28;69194;-69
2023/09/26 08:39:08;;;;;;;;;14.00;12.00;;;;;20.00;55.07;101328.00;5047726;28;63766;-70
2023/09/26 08:41:35;;;;;;;;;7.75;7.00;;;;;20.04;54.87;101325.09;5058254;28;45374;-69
2023/09/26 08:44:00;;;;;;;;;9.75;8.50;;;;;20.02;55.21;101315.47;5061903;28;61671;-69
2023/09/26 08:46:26;;;;;;;;;10.00;8.50;;;;;20.06;53.96;101312.56;5050999;28;45435;-69
2023/09/26 08:48:54;;;;;;;;;9.75;8.00;;;;;20.07;54.60;101318.72;5067287;28;47378;-69
2023/09/26 08:51:19;;;;;;;;;8.50;6.25;;;;;20.04;54.50;101314.47;5053395;28;45681;-68
2023/09/26 08:53:45;;;;;;;;;8.75;7.50;;;;;20.06;54.40;101320.53;5053896;28;66819;-69
2023/09/26 08:56:10;;;;;;;;;8.25;6.00;;;;;20.09;55.02;101320.34;5072051;27;45486;-69
2023/09/26 08:58:39;;;;;;;;;9.25;8.00;;;;;20.12;54.36;101315.81;5056444;28;45487;-69
2023/09/26 09:01:04;;;;;;;;;9.75;8.00;;;;;20.12;54.51;101321.97;5059059;28;45308;-69
2023/09/26 09:03:30;;;;;;;;;11.75;8.75;;;;;20.12;54.95;101315.81;5059225;28;45475;-69
2023/09/26 09:05:55;;;;;;;;;7.25;7.25;;;;;20.12;54.78;101302.53;5051249;28;45587;-69
2023/09/26 09:08:22;;;;;;;;;11.50;7.75;;;;;20.14;54.82;101313.94;5057099;28;62320;-69
2023/09/26 09:10:54;;;;;;;;;9.25;6.00;;;;;20.13;54.68;101309.53;5057288;28;45858;-69
2023/09/26 09:13:27;;;;;;;;;9.25;8.00;;;;;20.11;54.25;101309.63;5056417;28;45369;-69
2023/09/26 09:16:09;;;;;;;;;10.75;7.75;;;;;20.14;54.52;101314.78;5056992;28;45473;-69
2023/09/26 09:18:34;;;;;;;;;7.75;6.00;;;;;20.13;54.56;101321.00;5042372;28;45523;-69
2023/09/26 09:21:00;;;;;;;;;9.00;8.75;;;;;20.13;54.28;101313.03;5055471;28;45378;-69
2023/09/26 09:23:25;;;;;;;;;11.00;10.00;;;;;20.16;54.36;101304.06;5045727;28;51080;-69
2023/09/26 09:25:51;;;;;;;;;11.00;7.00;;;;;20.16;54.25;101298.75;5045178;28;67662;-69
2023/09/26 09:28:20;;;;;;;;;8.25;6.75;;;;;20.20;54.20;101318.88;5057545;28;47294;-69
2023/09/26 09:30:46;;;;;;;;;7.00;7.00;;;;;20.19;54.12;101304.72;5049185;28;45798;-70
2023/09/26 09:33:13;;;;;;;;;8.00;8.00;;;;;20.22;54.69;101304.56;5056622;28;45549;-69
2023/09/26 09:35:38;;;;;;;;;10.75;7.50;;;;;20.25;54.76;101306.16;5044518;28;45454;-69
2023/09/26 09:38:12;;;;;;;;;7.00;5.75;;;;;20.25;54.66;101306.16;5042544;28;46069;-69
2023/09/26 09:40:38;;;;;;;;;6.00;6.00;;;;;20.30;54.55;101304.94;5056220;28;45603;-69
2023/09/26 09:43:04;;;;;;;;;10.75;5.25;;;;;20.32;54.13;101318.16;5055374;28;45480;-69
2023/09/26 09:45:32;;;;;;;;;8.50;8.25;;;;;20.34;54.36;101310.94;5052274;28;65267;-69
2023/09/26 09:48:01;;;;;;;;;10.00;8.25;;;;;20.37;54.26;101301.94;5044771;28;45391;-69
2023/09/26 09:50:28;;;;;;;;;13.50;9.00;;;;;20.37;53.98;101310.75;5049570;28;45281;-69
2023/09/26 09:52:56;;;;;;;;;9.00;7.25;;;;;20.44;54.29;101311.25;5051892;28;45382;-69
2023/09/26 09:55:24;;;;;;;;;16.00;13.00;;;;;20.47;54.38;101306.63;5042533;28;46946;-69
2023/09/26 09:57:50;;;;;;;;;14.75;8.75;;;;;20.51;53.91;101298.47;5055293;28;46809;-70
2023/09/26 10:00:19;;;;;;;;;10.25;8.25;;;;;20.54;54.53;101298.25;5047166;28;45630;-69
2023/09/26 10:02:45;;;;;;;;;10.25;9.00;;;;;20.57;53.91;101303.41;5057807;28;45564;-69
2023/09/26 10:05:13;;;;;;;;;10.00;9.50;;;;;20.59;54.08;101301.50;5039238;28;46316;-69
2023/09/26 10:07:40;;;;;;;;;13.25;8.50;;;;;20.66;53.79;101306.41;5050964;28;45420;-69
2023/09/26 10:10:09;;;;;;;;;10.25;9.75;;;;;20.67;54.13;101296.63;5045753;28;45769;-69
2023/09/26 10:12:36;;;;;;;;;12.25;10.00;;;;;20.73;53.72;101309.53;5052814;28;45529;-69
2023/09/26 10:15:01;;;;;;;;;12.25;9.50;;;;;20.79;54.11;101313.66;5058589;28;45370;-69
2023/09/26 10:17:26;;;;;;;;;11.75;11.25;;;;;20.85;53.30;101323.91;5076947;28;47009;-69
2023/09/26 10:19:54;;;;;;;;;12.25;10.00;;;;;20.90;53.96;101320.97;5042085;28;53606;-69
2023/09/26 10:22:20;;;;;;;;;9.00;8.00;;;;;20.96;53.82;101316.09;5042750;28;45767;-70
2023/09/26 10:24:50;;;;;;;;;10.00;9.00;;;;;21.04;52.89;101302.34;5065185;27;45587;-69
2023/09/26 10:27:24;;;;;;;;;13.00;10.25;;;;;21.12;53.53;101292.06;5042764;28;45628;-69
2023/09/26 10:29:51;;;;;;;;;11.50;8.00;;;;;21.20;53.03;101287.13;5057400;28;45457;-69
2023/09/26 10:32:22;;;;;;;;;11.50;9.00;;;;;21.27;53.29;101282.28;5052382;28;45459;-72
2023/09/26 10:34:48;;;;;;;;;12.00;9.75;;;;;21.40;53.20;101288.50;5062786;28;45563;-71
2023/09/26 10:37:19;;;;;;;;;13.25;10.25;;;;;21.52;52.88;101292.25;5046813;28;47116;-70
2023/09/26 10:39:44;;;;;;;;;14.50;11.25;;;;;21.61;53.01;101291.63;5042134;28;45492;-71
2023/09/26 10:42:14;;;;;;;;;10.75;9.00;;;;;21.72;52.46;101285.59;5048180;28;59216;-73
2023/09/26 10:44:46;;;;;;;;;12.50;10.00;;;;;21.82;52.71;101285.88;5053023;28;45516;-74
2023/09/26 10:47:16;;;;;;;;;11.75;9.75;;;;;21.91;52.54;101281.75;5048329;28;47084;-73
2023/09/26 10:49:44;;;;;;;;;10.50;10.00;;;;;21.97;52.31;101274.22;5051160;28;45400;-74
2023/09/26 10:52:11;;;;;;;;;9.50;9.25;;;;;22.09;51.58;101280.53;5052787;28;45495;-75
2023/09/26 10:54:41;;;;;;;;;12.25;9.00;;;;;22.16;51.94;101284.47;5048079;28;45482;-75
2023/09/26 10:57:06;;;;;;;;;11.75;9.25;;;;;22.24;51.20;101283.09;5057025;28;45833;-73
2023/09/26 10:59:32;;;;;;;;;11.25;10.50;;;;;22.33;51.31;101275.38;5046001;28;45485;-73
2023/09/26 11:01:59;;;;;;;;;15.50;10.75;;;;;22.42;51.13;101276.56;5052213;28;45343;-72
2023/09/26 11:04:28;;;;;;;;;9.00;6.00;;;;;22.50;50.70;101262.69;5059147;28;45300;-74
2023/09/26 11:06:56;;;;;;;;;16.00;9.00;;;;;22.58;50.79;101268.38;5051313;28;46328;-74
2023/09/26 11:09:22;;;;;;;;;11.25;9.50;;;;;22.64;50.32;101270.59;5041655;28;45343;-74
2023/09/26 11:11:48;;;;;;;;;12.00;9.75;;;;;22.67;50.13;101254.38;5054267;28;45235;-72
2023/09/26 11:14:13;;;;;;;;;12.00;7.00;;;;;22.77;49.78;101262.63;5056336;28;49393;-72
2023/09/26 11:16:41;;;;;;;;;8.75;7.50;;;;;22.81;49.29;101250.75;5057383;28;70107;-72